Time;durP1;ratioP1;P1;durP2;ratioP2;P2;SDS_P1;SDS_P2;PMS_P1;PMS_P2;Temp;Humidity;BMP_temperature;BMP_pressure;BME280_temperature;BME280_humidity;BME280_pressure;Samples;Min_cycle;Max_cycle;Signal;HPM_P1;HPM_P2
2022/06/04 00:00:30;;;;;;;2.50;2.30;;;18.70;92.50;;;;;;7375033;19;20328;-73
2022/06/04 00:02:55;;;;;;;2.05;1.95;;;18.60;92.60;;;;;;7380452;19;21266;-73
2022/06/04 00:05:26;;;;;;;2.20;2.00;;;18.60;93.00;;;;;;7380031;19;20886;-75
2022/06/04 00:07:52;;;;;;;2.30;2.10;;;18.60;93.20;;;;;;7369696;19;20364;-75
2022/06/04 00:15:52;;;;;;;3.08;2.00;;;18.50;93.20;;;;;;7378267;19;20340;-73
2022/06/04 00:18:18;;;;;;;2.07;1.97;;;18.40;93.90;;;;;;7370700;19;20898;-73
2022/06/04 00:20:44;;;;;;;2.45;2.25;;;18.40;93.70;;;;;;7382128;19;20372;-73
2022/06/04 00:23:10;;;;;;;2.30;2.20;;;18.40;94.10;;;;;;7382198;19;20352;-75
2022/06/04 00:25:36;;;;;;;2.23;2.13;;;18.40;93.90;;;;;;7383110;19;20348;-75
2022/06/04 00:28:04;;;;;;;2.83;2.00;;;18.30;94.20;;;;;;7377623;19;20371;-74
2022/06/04 00:30:30;;;;;;;3.03;2.17;;;18.30;94.60;;;;;;7381971;19;20320;-74
2022/06/04 00:32:56;;;;;;;2.67;2.47;;;18.30;94.50;;;;;;7383413;19;20771;-76
2022/06/04 00:35:21;;;;;;;2.43;2.10;;;18.30;95.00;;;;;;7381023;19;20396;-74
2022/06/04 00:37:48;;;;;;;2.55;2.35;;;18.30;94.90;;;;;;7377026;19;21325;-73
2022/06/04 00:40:25;;;;;;;2.20;2.00;;;18.30;94.80;;;;;;7378127;19;20356;-72
2022/06/04 00:42:51;;;;;;;2.67;2.20;;;18.30;95.30;;;;;;7383010;19;20348;-72
2022/06/04 00:45:32;;;;;;;2.28;2.00;;;18.30;95.40;;;;;;7380886;19;21043;-72
2022/06/04 00:47:58;;;;;;;2.38;2.17;;;18.30;95.30;;;;;;7379295;19;20356;-72
2022/06/04 00:50:24;;;;;;;2.40;2.20;;;18.20;95.50;;;;;;7381885;19;20463;-72
2022/06/04 00:52:49;;;;;;;2.63;2.38;;;18.20;95.70;;;;;;7382232;19;20392;-73
2022/06/04 00:55:15;;;;;;;2.57;2.37;;;18.20;95.80;;;;;;7380399;19;20360;-72
2022/06/04 00:57:57;;;;;;;2.72;2.42;;;18.10;96.30;;;;;;7376129;19;20372;-72
2022/06/04 01:00:32;;;;;;;4.07;2.50;;;18.10;96.60;;;;;;7376308;19;20361;-72
2022/06/04 01:03:08;;;;;;;3.22;2.70;;;18.10;96.50;;;;;;7374609;19;20369;-72
2022/06/04 01:05:40;;;;;;;3.95;2.30;;;18.00;96.30;;;;;;7376866;19;20356;-73
2022/06/04 01:08:18;;;;;;;2.90;2.20;;;18.00;96.70;;;;;;7355057;19;20361;-72
2022/06/04 01:11:21;;;;;;;2.55;2.35;;;18.00;96.90;;;;;;7360538;19;20869;-72
2022/06/04 01:14:03;;;;;;;2.60;2.40;;;18.00;97.20;;;;;;7378245;19;20353;-72
2022/06/04 01:16:48;;;;;;;2.33;2.13;;;18.00;97.30;;;;;;7375650;19;20947;-72
2022/06/04 01:19:30;;;;;;;3.70;2.28;;;18.00;97.50;;;;;;7378038;19;20344;-73
2022/06/04 01:22:04;;;;;;;2.70;2.50;;;18.00;97.20;;;;;;7381195;19;21249;-72
2022/06/04 01:24:42;;;;;;;2.55;2.35;;;17.90;97.90;;;;;;7380501;19;20348;-73
2022/06/04 01:27:16;;;;;;;2.90;2.70;;;17.90;97.90;;;;;;7374217;19;20372;-72
2022/06/04 01:30:03;;;;;;;4.90;2.90;;;17.70;98.40;;;;;;7378783;19;20766;-73
2022/06/04 01:32:30;;;;;;;2.67;2.47;;;17.60;99.60;;;;;;7378299;19;20368;-73
2022/06/04 01:35:24;;;;;;;3.15;2.85;;;17.50;99.90;;;;;;7377271;19;20352;-73
2022/06/04 01:38:16;;;;;;;2.70;2.50;;;17.60;99.80;;;;;;7374059;19;20344;-73
2022/06/04 01:41:06;;;;;;;2.80;2.60;;;17.60;99.90;;;;;;7378824;19;21339;-73
2022/06/04 01:43:53;;;;;;;2.65;2.45;;;17.60;99.90;;;;;;7380112;19;20364;-73
2022/06/04 01:46:29;;;;;;;3.10;2.80;;;17.70;99.90;;;;;;7375835;19;20396;-73
2022/06/04 01:49:02;;;;;;;3.47;2.50;;;17.70;99.90;;;;;;7378631;19;20377;-72
2022/06/04 01:51:29;;;;;;;2.72;2.53;;;17.60;99.90;;;;;;7378087;19;20383;-73
2022/06/04 01:53:58;;;;;;;2.47;2.28;;;17.70;99.90;;;;;;7378804;19;20344;-73
2022/06/04 01:56:27;;;;;;;2.85;2.58;;;17.60;99.90;;;;;;7374843;19;20917;-72
2022/06/04 01:58:55;;;;;;;2.90;2.70;;;17.70;99.90;;;;;;7378705;19;20381;-76
2022/06/04 02:01:32;;;;;;;3.65;2.88;;;17.70;99.90;;;;;;7378889;19;20337;-73
2022/06/04 02:04:04;;;;;;;2.50;2.30;;;17.70;99.90;;;;;;7380169;19;20428;-72
2022/06/04 02:06:36;;;;;;;3.27;2.70;;;17.70;99.90;;;;;;7374572;19;20388;-73
2022/06/04 02:09:07;;;;;;;3.22;2.92;;;17.80;99.90;;;;;;7376500;19;20344;-72
2022/06/04 02:11:33;;;;;;;3.15;2.78;;;17.80;99.90;;;;;;7378535;19;20420;-73
2022/06/04 02:14:03;;;;;;;3.00;2.80;;;17.70;99.90;;;;;;7378583;19;20938;-73
2022/06/04 02:16:48;;;;;;;3.30;3.00;;;17.80;99.90;;;;;;7375939;19;20369;-73
2022/06/04 02:19:14;;;;;;;3.08;2.65;;;17.70;99.90;;;;;;7377869;19;20352;-72
2022/06/04 02:21:39;;;;;;;3.30;2.90;;;17.70;99.90;;;;;;7376977;19;20400;-73
2022/06/04 02:24:05;;;;;;;3.80;3.50;;;17.60;99.90;;;;;;7378285;19;20368;-73
2022/06/04 02:26:31;;;;;;;4.57;2.97;;;17.60;99.90;;;;;;7376315;19;20376;-72
2022/06/04 02:28:57;;;;;;;3.40;3.10;;;17.60;99.90;;;;;;7381027;19;20353;-72
2022/06/04 02:31:31;;;;;;;4.05;3.67;;;17.60;99.90;;;;;;7376871;19;20363;-72
2022/06/04 02:34:30;;;;;;;3.33;2.93;;;17.30;99.90;;;;;;7380081;19;20462;-72
2022/06/04 02:37:24;;;;;;;3.55;3.13;;;17.10;99.90;;;;;;7373912;19;20349;-73
2022/06/04 02:40:00;;;;;;;2.92;2.72;;;17.20;99.90;;;;;;7376423;19;20364;-73
2022/06/04 02:42:34;;;;;;;3.13;2.88;;;17.10;99.90;;;;;;7376981;19;20422;-72
2022/06/04 02:45:08;;;;;;;2.92;2.65;;;17.10;99.90;;;;;;7377862;19;20890;-72
2022/06/04 02:47:38;;;;;;;2.85;2.65;;;17.20;99.90;;;;;;7373566;19;20361;-72
2022/06/04 02:50:13;;;;;;;3.35;3.05;;;17.10;99.90;;;;;;7375387;19;20380;-72
2022/06/04 02:52:39;;;;;;;2.58;2.38;;;17.10;99.90;;;;;;7378512;19;20348;-73
2022/06/04 02:55:07;;;;;;;2.63;2.42;;;17.10;99.90;;;;;;7376547;19;21621;-72
2022/06/04 02:57:33;;;;;;;3.10;2.90;;;17.10;99.90;;;;;;7372556;19;20368;-72
2022/06/04 02:59:59;;;;;;;3.70;3.40;;;17.00;99.90;;;;;;7374904;19;20389;-72
2022/06/04 03:02:26;;;;;;;3.58;3.28;;;17.00;99.90;;;;;;7376200;19;20336;-73
2022/06/04 03:04:52;;;;;;;2.70;2.50;;;17.00;99.90;;;;;;7377526;19;20372;-72
2022/06/04 03:07:19;;;;;;;2.40;2.20;;;17.00;99.90;;;;;;7372525;19;20487;-73
2022/06/04 03:09:44;;;;;;;2.90;2.70;;;17.00;99.90;;;;;;7377978;19;20380;-72
2022/06/04 03:12:11;;;;;;;3.20;3.00;;;17.00;99.90;;;;;;7378295;19;20348;-72
2022/06/04 03:14:37;;;;;;;3.90;3.42;;;17.00;99.90;;;;;;7379557;19;20375;-72
2022/06/04 03:17:06;;;;;;;3.40;3.15;;;16.90;99.90;;;;;;7372166;19;20360;-73
2022/06/04 03:19:31;;;;;;;3.42;3.10;;;16.80;99.90;;;;;;7374088;19;20373;-72
2022/06/04 03:21:57;;;;;;;3.83;3.50;;;16.90;99.90;;;;;;7376290;19;20349;-73
2022/06/04 03:24:22;;;;;;;2.85;2.58;;;16.90;99.90;;;;;;7379605;19;20717;-72
2022/06/04 03:26:48;;;;;;;2.70;2.50;;;16.90;99.90;;;;;;7372094;19;20368;-72
2022/06/04 03:29:18;;;;;;;2.50;2.30;;;16.90;99.90;;;;;;7377144;19;20374;-73
2022/06/04 03:31:43;;;;;;;4.78;3.42;;;17.00;99.90;;;;;;7374799;19;20349;-72
2022/06/04 03:34:09;;;;;;;4.80;3.27;;;16.90;99.90;;;;;;7376568;19;20352;-72
2022/06/04 03:36:35;;;;;;;6.45;3.05;;;16.90;99.90;;;;;;7372143;19;20369;-73
2022/06/04 03:39:00;;;;;;;3.15;2.88;;;16.90;99.90;;;;;;7373662;19;20369;-72
2022/06/04 03:41:26;;;;;;;2.60;2.40;;;16.90;99.90;;;;;;7377086;19;20357;-72
2022/06/04 03:43:52;;;;;;;2.78;2.58;;;17.00;99.90;;;;;;7376687;19;20352;-72
2022/06/04 03:46:19;;;;;;;2.90;2.70;;;17.00;99.90;;;;;;7356763;19;20345;-73
2022/06/04 03:48:45;;;;;;;3.45;2.83;;;17.00;99.90;;;;;;7374455;19;20717;-72
2022/06/04 03:51:10;;;;;;;2.80;2.60;;;16.90;99.90;;;;;;7376399;19;20340;-72
2022/06/04 03:53:36;;;;;;;3.10;2.80;;;17.00;99.90;;;;;;7377871;19;20340;-73
2022/06/04 03:56:01;;;;;;;3.50;3.20;;;17.10;99.90;;;;;;7372727;19;20340;-73
2022/06/04 03:58:30;;;;;;;3.50;2.60;;;17.10;99.90;;;;;;7379325;19;20709;-72
2022/06/04 04:00:56;;;;;;;3.00;2.80;;;17.10;99.90;;;;;;7374401;19;21119;-73
2022/06/04 04:03:21;;;;;;;3.47;3.17;;;17.20;99.90;;;;;;7375891;19;20336;-75
2022/06/04 04:05:49;;;;;;;2.78;2.58;;;17.20;99.90;;;;;;7374772;19;20365;-74
2022/06/04 04:08:15;;;;;;;3.80;2.50;;;17.20;99.90;;;;;;7373504;19;20395;-74
2022/06/04 04:10:41;;;;;;;3.38;3.08;;;17.20;99.90;;;;;;7376858;19;20763;-74
2022/06/04 04:13:07;;;;;;;2.88;2.63;;;17.20;99.90;;;;;;7377092;19;20376;-74
2022/06/04 04:15:32;;;;;;;2.30;2.20;;;17.30;99.90;;;;;;7375440;19;20365;-73
2022/06/04 04:17:58;;;;;;;2.70;2.50;;;17.30;99.90;;;;;;7371145;19;20434;-73
2022/06/04 04:20:29;;;;;;;3.25;2.90;;;17.30;99.90;;;;;;7373027;19;20433;-73
2022/06/04 04:22:55;;;;;;;2.80;2.60;;;17.40;99.90;;;;;;7377439;19;20354;-73
2022/06/04 04:25:22;;;;;;;3.75;2.80;;;17.40;99.90;;;;;;7374975;19;20384;-73
2022/06/04 04:27:47;;;;;;;2.80;2.60;;;17.50;99.90;;;;;;7371784;19;20375;-72
2022/06/04 04:30:15;;;;;;;3.17;2.87;;;17.50;99.90;;;;;;7375428;19;21145;-72
2022/06/04 04:32:41;;;;;;;2.35;2.25;;;17.50;99.90;;;;;;7374244;19;20344;-73
2022/06/04 04:35:08;;;;;;;2.23;2.10;;;17.60;99.90;;;;;;7374711;19;20807;-73
2022/06/04 04:37:33;;;;;;;2.70;2.50;;;17.70;99.90;;;;;;7376910;19;20349;-73
2022/06/04 04:39:59;;;;;;;2.93;2.73;;;17.80;99.90;;;;;;7381100;19;20379;-72
2022/06/04 04:42:25;;;;;;;3.00;2.80;;;17.80;99.90;;;;;;7381399;19;20351;-73
2022/06/04 04:44:50;;;;;;;3.53;3.17;;;17.80;99.90;;;;;;7383999;19;20364;-73
2022/06/04 04:47:16;;;;;;;3.20;2.90;;;17.80;99.90;;;;;;7380131;19;20370;-72
2022/06/04 04:49:42;;;;;;;3.40;3.10;;;17.80;99.90;;;;;;7381411;19;20452;-72
2022/06/04 04:52:07;;;;;;;2.73;2.53;;;17.80;99.90;;;;;;7382857;19;20681;-74
2022/06/04 04:54:33;;;;;;;2.83;2.63;;;17.80;99.90;;;;;;7382435;19;20359;-74
2022/06/04 04:56:59;;;;;;;3.63;3.33;;;17.90;99.90;;;;;;7378717;19;20883;-73
2022/06/04 04:59:25;;;;;;;3.33;3.05;;;17.90;99.90;;;;;;7383875;19;20369;-73
2022/06/04 05:01:50;;;;;;;3.47;3.17;;;17.90;99.90;;;;;;7378243;19;20344;-74
2022/06/04 05:04:16;;;;;;;3.30;3.00;;;17.90;99.90;;;;;;7384497;19;20340;-75
2022/06/04 05:06:41;;;;;;;2.90;2.70;;;18.00;99.90;;;;;;7381407;19;20357;-75
2022/06/04 05:09:08;;;;;;;2.87;2.67;;;18.10;99.90;;;;;;7380367;19;20364;-73
2022/06/04 05:11:34;;;;;;;3.13;2.83;;;18.20;99.90;;;;;;7380708;19;20361;-73
2022/06/04 05:14:00;;;;;;;3.85;2.97;;;18.20;99.90;;;;;;7383620;19;20351;-73
2022/06/04 05:16:28;;;;;;;3.42;3.13;;;18.20;99.90;;;;;;7380103;19;20396;-73
2022/06/04 05:18:54;;;;;;;3.38;3.05;;;18.20;99.90;;;;;;7380555;19;20368;-73
2022/06/04 05:21:23;;;;;;;3.35;3.05;;;18.30;99.90;;;;;;7381204;19;20795;-73
2022/06/04 05:23:49;;;;;;;4.57;3.50;;;18.30;99.90;;;;;;7382340;19;20428;-73
2022/06/04 05:26:15;;;;;;;3.78;3.47;;;18.30;99.90;;;;;;7380909;19;20465;-73
2022/06/04 05:28:42;;;;;;;4.22;3.83;;;18.30;99.90;;;;;;7382130;19;20347;-73
2022/06/04 05:31:08;;;;;;;3.45;3.15;;;18.20;99.90;;;;;;7383275;19;20336;-73
2022/06/04 05:33:34;;;;;;;3.40;2.97;;;18.20;99.90;;;;;;7384601;19;20673;-73
2022/06/04 05:35:59;;;;;;;3.40;3.10;;;18.30;99.90;;;;;;7383262;19;20384;-73
2022/06/04 05:38:25;;;;;;;4.25;3.85;;;18.40;99.90;;;;;;7380426;19;20746;-74
2022/06/04 05:40:58;;;;;;;3.28;3.08;;;18.50;99.90;;;;;;7378982;19;21017;-73
2022/06/04 05:43:24;;;;;;;3.70;3.40;;;18.60;99.90;;;;;;7382102;19;20394;-73
2022/06/04 05:46:14;;;;;;;4.10;3.70;;;18.60;99.90;;;;;;7384281;19;20401;-72
2022/06/04 05:48:41;;;;;;;3.80;3.50;;;18.60;99.90;;;;;;7378312;19;20344;-73
2022/06/04 05:51:09;;;;;;;4.72;3.70;;;18.70;99.90;;;;;;7381764;19;20693;-73
2022/06/04 05:53:35;;;;;;;3.45;3.15;;;18.80;99.90;;;;;;7383511;19;20366;-73
2022/06/04 05:56:00;;;;;;;3.70;3.40;;;18.90;99.90;;;;;;7380899;19;20356;-73
2022/06/04 05:58:26;;;;;;;4.20;3.80;;;19.00;99.90;;;;;;7379738;19;20689;-73
2022/06/04 06:01:01;;;;;;;4.10;3.80;;;19.10;99.90;;;;;;7381588;19;20337;-73
2022/06/04 06:03:26;;;;;;;3.90;3.60;;;19.10;99.90;;;;;;7383249;19;20375;-73
2022/06/04 06:05:52;;;;;;;3.50;3.20;;;19.10;99.90;;;;;;7383571;19;21377;-73
2022/06/04 06:08:17;;;;;;;3.40;3.10;;;19.20;99.90;;;;;;7377221;19;21104;-73
2022/06/04 06:10:44;;;;;;;3.33;3.03;;;19.30;99.90;;;;;;7380737;19;20361;-73
2022/06/04 06:13:09;;;;;;;4.15;3.40;;;19.40;99.90;;;;;;7383852;19;20356;-74
2022/06/04 06:15:35;;;;;;;3.60;3.30;;;19.50;99.90;;;;;;7381777;19;20372;-74
2022/06/04 06:18:01;;;;;;;4.00;3.60;;;19.60;99.90;;;;;;7375234;19;20901;-73
2022/06/04 06:20:26;;;;;;;3.77;3.47;;;19.60;99.90;;;;;;7379719;19;20411;-73
2022/06/04 06:22:52;;;;;;;4.38;4.05;;;19.50;99.90;;;;;;7383774;19;20361;-73
2022/06/04 06:25:17;;;;;;;4.75;3.90;;;19.40;99.90;;;;;;7380648;19;20345;-74
2022/06/04 06:27:43;;;;;;;4.00;3.60;;;19.30;99.90;;;;;;7376732;19;20774;-74
2022/06/04 06:30:09;;;;;;;4.90;3.83;;;19.40;99.90;;;;;;7379102;19;20398;-74
2022/06/04 06:32:35;;;;;;;4.60;4.10;;;19.30;99.90;;;;;;7381706;19;20372;-73
2022/06/04 06:35:01;;;;;;;5.97;4.45;;;19.20;99.90;;;;;;7380398;19;20448;-73
2022/06/04 06:37:27;;;;;;;4.25;3.85;;;19.10;99.90;;;;;;7375225;19;20830;-74
2022/06/04 06:39:53;;;;;;;4.20;3.80;;;19.10;99.90;;;;;;7378548;19;20341;-73
2022/06/04 06:42:18;;;;;;;4.57;3.92;;;19.00;99.90;;;;;;7379339;19;20360;-74
2022/06/04 06:44:52;;;;;;;6.63;3.50;;;19.00;99.90;;;;;;7380487;19;20336;-74
2022/06/04 06:47:18;;;;;;;3.45;3.25;;;19.00;99.90;;;;;;7377318;19;20358;-73
2022/06/04 06:49:44;;;;;;;4.07;3.75;;;19.10;99.90;;;;;;7378204;19;20364;-73
2022/06/04 06:52:10;;;;;;;3.70;3.40;;;19.10;99.90;;;;;;7380045;19;20785;-74
2022/06/04 06:54:36;;;;;;;4.47;3.80;;;19.20;99.90;;;;;;7383112;19;20359;-74
2022/06/04 06:57:03;;;;;;;3.57;3.30;;;19.20;99.90;;;;;;7375700;19;20384;-74
2022/06/04 06:59:29;;;;;;;3.92;3.63;;;19.20;99.90;;;;;;7379339;19;20708;-74
2022/06/04 07:01:55;;;;;;;4.60;4.20;;;19.30;99.90;;;;;;7380034;19;20344;-74
2022/06/04 07:04:23;;;;;;;4.07;3.78;;;19.20;99.90;;;;;;7379703;19;21178;-73
2022/06/04 07:06:51;;;;;;;3.30;3.10;;;19.30;99.90;;;;;;7374750;19;20380;-73
2022/06/04 07:09:29;;;;;;;4.07;3.75;;;19.30;99.90;;;;;;7377648;19;20393;-74
2022/06/04 07:11:55;;;;;;;3.53;3.22;;;19.30;99.90;;;;;;7380296;19;20390;-74
2022/06/04 07:14:22;;;;;;;4.15;3.75;;;19.40;99.90;;;;;;7381032;19;20404;-73
2022/06/04 07:16:48;;;;;;;3.55;3.30;;;19.30;99.90;;;;;;7376712;19;20377;-74
2022/06/04 07:19:15;;;;;;;3.40;3.10;;;19.30;99.90;;;;;;7377823;19;20891;-74
2022/06/04 07:21:41;;;;;;;3.67;3.38;;;19.50;99.90;;;;;;7380069;19;20336;-74
2022/06/04 07:24:06;;;;;;;4.18;3.78;;;19.70;99.90;;;;;;7379840;19;20923;-74
2022/06/04 07:26:32;;;;;;;3.77;3.37;;;19.80;99.90;;;;;;7377246;19;20356;-74
2022/06/04 07:28:57;;;;;;;3.78;3.42;;;19.90;99.90;;;;;;7378032;19;20364;-74
2022/06/04 07:31:23;;;;;;;3.50;3.20;;;20.00;99.90;;;;;;7379356;19;20341;-73
2022/06/04 07:33:52;;;;;;;3.30;3.00;;;20.10;99.90;;;;;;7382370;19;20356;-74
2022/06/04 07:36:19;;;;;;;4.60;3.35;;;20.20;99.90;;;;;;7374646;19;20336;-74
2022/06/04 07:38:45;;;;;;;4.03;3.30;;;20.20;99.90;;;;;;7374624;19;20366;-74
2022/06/04 07:41:18;;;;;;;3.77;3.47;;;20.00;99.90;;;;;;7375979;19;20914;-74
2022/06/04 07:43:44;;;;;;;3.28;2.97;;;19.90;99.90;;;;;;7375146;19;20336;-76
2022/06/04 07:46:09;;;;;;;3.80;3.50;;;20.00;99.90;;;;;;7372659;19;20361;-74
2022/06/04 07:48:35;;;;;;;3.58;3.28;;;20.10;99.90;;;;;;7374751;19;20356;-74
2022/06/04 07:51:04;;;;;;;3.17;2.97;;;20.20;99.90;;;;;;7377906;19;20352;-74
2022/06/04 07:53:30;;;;;;;3.05;2.85;;;20.30;99.90;;;;;;7380115;19;20442;-74
2022/06/04 07:55:56;;;;;;;3.50;3.20;;;20.40;99.90;;;;;;7381433;19;20368;-74
2022/06/04 07:58:21;;;;;;;4.00;2.90;;;20.50;99.90;;;;;;7373046;19;20426;-74
2022/06/04 08:00:54;;;;;;;3.73;3.43;;;20.60;99.90;;;;;;7375569;19;20381;-74
2022/06/04 08:03:19;;;;;;;3.25;3.00;;;20.40;99.90;;;;;;7378408;19;20355;-74
2022/06/04 08:05:45;;;;;;;3.28;3.08;;;20.50;99.90;;;;;;7377770;19;20416;-74
2022/06/04 08:08:10;;;;;;;3.20;2.90;;;20.50;99.90;;;;;;7374046;19;20372;-75
2022/06/04 08:10:36;;;;;;;2.90;2.70;;;20.60;99.90;;;;;;7379611;19;20360;-74
2022/06/04 08:13:02;;;;;;;3.13;2.83;;;20.60;99.90;;;;;;7386359;19;20677;-74
2022/06/04 08:15:27;;;;;;;3.17;2.87;;;20.60;99.90;;;;;;7385035;19;20358;-74
2022/06/04 08:17:53;;;;;;;3.00;2.80;;;20.70;99.90;;;;;;7382932;19;20368;-74
2022/06/04 08:20:18;;;;;;;3.45;3.20;;;20.70;99.90;;;;;;7383863;19;20356;-74
2022/06/04 08:22:44;;;;;;;4.28;3.08;;;20.70;99.90;;;;;;7388013;19;20369;-74
2022/06/04 08:25:10;;;;;;;4.07;3.67;;;20.60;99.90;;;;;;7384338;19;20356;-74
2022/06/04 08:27:36;;;;;;;4.10;2.92;;;20.60;99.90;;;;;;7382920;19;20397;-74
2022/06/04 08:30:01;;;;;;;3.20;3.00;;;20.50;99.90;;;;;;7384401;19;20360;-75
2022/06/04 08:32:27;;;;;;;3.07;2.87;;;20.50;99.90;;;;;;7384727;19;20725;-75
2022/06/04 08:34:52;;;;;;;3.35;3.15;;;20.60;99.90;;;;;;7386131;19;20914;-75
2022/06/04 08:37:18;;;;;;;3.80;3.28;;;20.70;99.90;;;;;;7381160;19;20414;-74
2022/06/04 08:39:43;;;;;;;3.30;2.97;;;20.70;99.90;;;;;;7383194;19;20360;-74
2022/06/04 08:42:09;;;;;;;3.17;2.90;;;20.60;99.90;;;;;;7384765;19;20365;-73
2022/06/04 08:44:46;;;;;;;3.67;3.33;;;20.70;99.90;;;;;;7385275;19;20381;-74
2022/06/04 08:47:27;;;;;;;3.40;3.13;;;20.70;99.90;;;;;;7379025;19;20728;-73
2022/06/04 08:50:05;;;;;;;3.33;3.03;;;20.60;99.90;;;;;;7385451;19;20349;-74
2022/06/04 08:52:40;;;;;;;3.30;3.00;;;20.60;99.90;;;;;;7384786;19;20974;-73
2022/06/04 08:58:48;;;;;;;3.80;3.50;;;20.60;99.90;;;;;;7383458;19;20452;-74
2022/06/04 09:01:19;;;;;;;3.65;3.30;;;20.60;99.90;;;;;;7383118;19;20348;-74
2022/06/04 09:04:03;;;;;;;3.20;3.00;;;20.50;99.90;;;;;;7386215;19;20348;-74
2022/06/04 09:06:54;;;;;;;3.20;3.00;;;20.40;99.90;;;;;;7380531;19;20368;-73
2022/06/04 09:09:43;;;;;;;3.35;3.05;;;20.30;99.90;;;;;;7381433;19;20427;-74
2022/06/04 09:12:14;;;;;;;2.95;2.75;;;20.50;99.90;;;;;;7384408;19;20352;-74
2022/06/04 09:14:50;;;;;;;3.60;3.30;;;20.60;99.90;;;;;;7386214;19;20345;-74
2022/06/04 09:17:43;;;;;;;3.13;2.83;;;20.40;99.90;;;;;;7379970;19;21210;-75
2022/06/04 09:20:32;;;;;;;3.45;2.95;;;20.40;99.90;;;;;;7381166;19;20364;-74
2022/06/04 09:23:15;;;;;;;4.10;2.83;;;20.60;99.90;;;;;;7385799;19;20367;-74
2022/06/04 09:26:00;;;;;;;4.35;4.05;;;20.70;99.90;;;;;;7383739;19;20356;-74
2022/06/04 09:28:50;;;;;;;4.43;3.55;;;20.60;99.90;;;;;;7381137;19;20831;-73
2022/06/04 09:31:25;;;;;;;3.05;2.83;;;20.60;99.90;;;;;;7382774;19;20352;-74
2022/06/04 09:33:56;;;;;;;3.92;2.95;;;20.50;99.90;;;;;;7383777;19;20360;-72
2022/06/04 09:36:27;;;;;;;4.30;3.63;;;20.50;99.90;;;;;;7380389;19;20392;-72
2022/06/04 09:39:17;;;;;;;3.57;3.30;;;20.10;99.90;;;;;;7381239;19;20355;-72
2022/06/04 09:41:49;;;;;;;4.57;3.03;;;20.10;99.90;;;;;;7381701;19;20988;-73
2022/06/04 09:44:15;;;;;;;4.20;3.80;;;20.10;99.90;;;;;;7381389;19;20765;-72
2022/06/04 09:46:46;;;;;;;3.53;3.22;;;19.90;99.90;;;;;;7379264;19;20368;-72
2022/06/04 09:49:30;;;;;;;3.60;3.38;;;20.00;99.90;;;;;;7380704;19;20340;-72
2022/06/04 09:51:56;;;;;;;4.28;3.40;;;20.10;99.90;;;;;;7379014;19;20363;-72
2022/06/04 09:54:28;;;;;;;4.50;3.00;;;20.10;99.90;;;;;;7378489;19;20368;-72
2022/06/04 09:57:02;;;;;;;3.85;3.55;;;20.20;99.90;;;;;;7374637;19;20360;-72
2022/06/04 09:59:30;;;;;;;3.60;3.30;;;20.20;99.90;;;;;;7376608;19;20358;-72
2022/06/04 10:02:08;;;;;;;4.18;3.78;;;20.20;99.90;;;;;;7378519;19;20337;-72
2022/06/04 10:04:47;;;;;;;4.17;3.77;;;20.20;99.90;;;;;;7390797;19;20344;-73
2022/06/04 10:07:26;;;;;;;4.30;3.90;;;20.30;99.90;;;;;;7403639;19;20381;-73
2022/06/04 10:09:58;;;;;;;3.85;3.45;;;20.40;99.90;;;;;;7404704;19;20373;-73
2022/06/04 10:15:27;;;;;;;4.00;3.70;;;20.50;99.90;;;;;;7378556;19;21081;-72
2022/06/04 10:18:05;;;;;;;4.32;4.00;;;20.60;99.90;;;;;;7371858;19;20359;-72
2022/06/04 10:20:31;;;;;;;4.13;3.75;;;20.60;99.90;;;;;;7375816;19;20389;-72
2022/06/04 10:22:57;;;;;;;4.00;3.70;;;20.40;99.90;;;;;;7380792;19;20364;-72
2022/06/04 10:25:26;;;;;;;3.50;3.20;;;20.50;99.90;;;;;;7379362;19;20365;-73
2022/06/04 10:28:13;;;;;;;4.13;3.75;;;20.80;99.90;;;;;;7370313;19;20349;-72
2022/06/04 10:30:50;;;;;;;4.45;3.78;;;21.00;99.90;;;;;;7375216;19;20401;-73
2022/06/04 10:33:38;;;;;;;3.50;3.25;;;21.00;99.90;;;;;;7377552;19;20356;-72
2022/06/04 10:36:06;;;;;;;3.70;3.38;;;21.00;99.90;;;;;;7374334;19;20694;-72
2022/06/04 10:38:53;;;;;;;3.50;3.17;;;21.20;99.90;;;;;;7375814;19;20357;-73
2022/06/04 10:42:05;;;;;;;3.67;3.37;;;21.50;99.90;;;;;;7377666;19;20369;-72
2022/06/04 10:44:46;;;;;;;5.03;4.07;;;21.70;99.90;;;;;;7372586;19;20374;-72
2022/06/04 10:47:33;;;;;;;3.70;3.40;;;21.60;99.90;;;;;;7371118;19;21147;-72
2022/06/04 10:50:16;;;;;;;3.67;3.38;;;21.70;99.90;;;;;;7375500;19;20420;-72
2022/06/04 10:52:43;;;;;;;4.03;3.63;;;22.00;99.90;;;;;;7374927;19;20858;-72
2022/06/04 10:55:34;;;;;;;3.47;3.17;;;22.30;99.90;;;;;;7379460;19;20887;-73
2022/06/04 10:58:24;;;;;;;3.80;3.50;;;22.60;99.90;;;;;;7374161;19;20432;-72
2022/06/04 11:00:51;;;;;;;3.38;3.17;;;22.60;99.90;;;;;;7377802;19;20353;-72
2022/06/04 11:03:36;;;;;;;4.18;3.63;;;22.60;99.90;;;;;;7380902;19;20399;-72
2022/06/04 11:06:21;;;;;;;3.53;3.23;;;22.70;99.90;;;;;;7377373;19;20347;-74
2022/06/04 11:08:51;;;;;;;3.97;3.47;;;22.80;99.90;;;;;;7377942;19;20349;-72
2022/06/04 11:11:41;;;;;;;3.70;3.40;;;22.90;99.90;;;;;;7380495;19;20364;-78
2022/06/04 11:14:16;;;;;;;5.70;4.40;;;23.50;99.90;;;;;;7380591;19;20344;-73
2022/06/04 11:16:59;;;;;;;11.73;8.85;;;23.90;99.90;;;;;;7376593;19;20364;-74
2022/06/04 11:19:30;;;;;;;10.85;7.63;;;24.20;99.90;;;;;;7377897;19;20364;-73
2022/06/04 11:21:59;;;;;;;3.90;3.60;;;24.30;99.90;;;;;;7379296;19;20375;-73
2022/06/04 11:24:33;;;;;;;3.47;3.17;;;24.30;99.90;;;;;;7380223;19;20435;-73
2022/06/04 11:27:19;;;;;;;3.85;3.55;;;24.30;99.90;;;;;;7372948;19;20389;-73
2022/06/04 11:29:45;;;;;;;3.60;3.30;;;24.80;99.90;;;;;;7375650;19;20895;-74
2022/06/04 11:32:22;;;;;;;3.50;3.20;;;25.00;99.90;;;;;;7376871;19;20384;-74
2022/06/04 11:34:54;;;;;;;3.83;3.53;;;25.30;99.90;;;;;;7379521;19;20394;-73
2022/06/04 11:37:48;;;;;;;3.83;3.53;;;25.10;99.90;;;;;;7377859;19;20371;-73
2022/06/04 11:40:28;;;;;;;4.10;3.70;;;24.60;99.90;;;;;;7374733;19;20352;-74
2022/06/04 11:43:01;;;;;;;3.60;3.30;;;24.30;99.90;;;;;;7377933;19;20431;-74
2022/06/04 11:45:39;;;;;;;3.63;3.28;;;24.20;99.90;;;;;;7376098;19;20356;-75
2022/06/04 11:48:33;;;;;;;3.92;3.58;;;24.20;99.90;;;;;;7370910;19;21029;-73
2022/06/04 11:51:21;;;;;;;3.95;3.65;;;23.80;99.90;;;;;;7378258;19;20356;-75
2022/06/04 11:54:25;;;;;;;4.30;3.90;;;24.00;99.90;;;;;;7377896;19;20348;-75
2022/06/04 11:57:03;;;;;;;4.07;3.60;;;24.30;99.90;;;;;;7373503;19;21151;-74
2022/06/04 11:59:39;;;;;;;3.65;3.35;;;24.80;99.90;;;;;;7375378;19;20443;-74
2022/06/04 12:02:14;;;;;;;4.32;3.90;;;25.10;99.90;;;;;;7371992;19;20390;-75
2022/06/04 12:05:07;;;;;;;3.65;3.35;;;25.20;99.90;;;;;;7375373;19;20344;-75
2022/06/04 12:07:43;;;;;;;3.90;3.23;;;25.30;99.90;;;;;;7369001;19;20361;-77
2022/06/04 12:10:21;;;;;;;3.50;3.20;;;25.40;99.90;;;;;;7374980;19;20349;-78
2022/06/04 12:13:02;;;;;;;3.40;3.10;;;25.50;99.90;;;;;;7371992;19;20944;-81
2022/06/04 12:15:37;;;;;;;4.03;3.40;;;25.60;99.90;;;;;;7376103;19;20343;-76
2022/06/04 12:18:17;;;;;;;3.67;3.37;;;25.60;99.90;;;;;;7369904;19;20360;-78
2022/06/04 12:26:24;;;;;;;6.05;3.80;;;25.60;99.90;;;;;;7372949;19;20360;-75
2022/06/04 12:28:50;;;;;;;3.67;3.28;;;25.50;99.90;;;;;;7375330;19;20736;-77
2022/06/04 12:31:36;;;;;;;3.73;3.40;;;25.80;99.90;;;;;;7370333;19;20341;-74
2022/06/04 12:34:22;;;;;;;5.05;3.70;;;25.80;99.90;;;;;;7375774;19;20364;-78
2022/06/04 12:36:52;;;;;;;4.15;3.50;;;25.60;99.90;;;;;;7369537;19;20375;-76
2022/06/04 12:39:22;;;;;;;3.42;3.15;;;25.60;99.90;;;;;;7371173;19;20360;-77
2022/06/04 12:41:49;;;;;;;3.70;3.40;;;25.40;99.90;;;;;;7370141;19;20356;-74
2022/06/04 12:44:25;;;;;;;3.85;3.55;;;25.30;99.90;;;;;;7371427;19;20364;-74
2022/06/04 12:46:52;;;;;;;3.63;3.33;;;25.30;99.90;;;;;;7372014;19;20368;-74
2022/06/04 12:49:47;;;;;;;4.75;3.58;;;25.20;99.90;;;;;;7374627;19;20399;-74
2022/06/04 12:52:40;;;;;;;3.55;3.25;;;25.00;99.90;;;;;;7375843;19;20369;-74
2022/06/04 12:55:07;;;;;;;3.92;3.53;;;25.00;99.90;;;;;;7376231;19;20400;-74
2022/06/04 12:57:48;;;;;;;4.63;3.67;;;25.10;99.90;;;;;;7372680;19;20351;-75
2022/06/04 13:00:17;;;;;;;3.95;3.50;;;25.10;99.90;;;;;;7380302;19;20360;-77
2022/06/04 13:02:58;;;;;;;3.37;3.17;;;25.20;99.90;;;;;;7385787;19;20356;-74
2022/06/04 13:05:25;;;;;;;3.33;3.03;;;25.50;99.90;;;;;;7380613;19;20377;-76
2022/06/04 13:08:17;;;;;;;3.63;3.30;;;25.70;99.90;;;;;;7380649;19;20364;-76
2022/06/04 13:11:34;;;;;;;3.57;3.27;;;25.70;99.90;;;;;;7382483;19;20376;-75
2022/06/04 13:14:37;;;;;;;3.25;2.95;;;25.70;99.90;;;;;;7380222;19;20344;-75
2022/06/04 13:17:38;;;;;;;3.75;3.22;;;25.60;99.90;;;;;;7380698;19;20970;-77
2022/06/04 13:20:25;;;;;;;3.20;2.90;;;25.80;99.90;;;;;;7381546;19;20384;-77
2022/06/04 13:23:15;;;;;;;3.72;3.15;;;25.80;99.90;;;;;;7379073;19;20351;-78
2022/06/04 13:26:11;;;;;;;3.28;2.97;;;26.00;99.90;;;;;;7379978;19;20377;-76
2022/06/04 13:28:41;;;;;;;3.35;3.05;;;26.10;99.90;;;;;;7382512;19;20754;-74
2022/06/04 13:31:24;;;;;;;3.70;3.40;;;26.10;99.90;;;;;;7381790;19;20684;-82